createdAt,value
2023-04-29T00:01:37.649Z,29.80
2023-04-29T00:04:04.689Z,37.50
2023-04-29T00:06:31.839Z,48.40
2023-04-29T00:08:58.650Z,50.10
2023-04-29T00:11:25.515Z,42.80
2023-04-29T00:13:52.701Z,38.20
2023-04-29T00:16:20.109Z,39.80
2023-04-29T00:18:47.137Z,41.70
2023-04-29T00:21:13.976Z,52.30
2023-04-29T00:23:40.840Z,70.70
2023-04-29T00:26:07.771Z,63.70
2023-04-29T00:28:34.716Z,44.30
2023-04-29T00:31:01.683Z,45.70
2023-04-29T00:33:29.026Z,88.20
2023-04-29T00:35:55.951Z,84.10
2023-04-29T00:38:23.162Z,83.50
2023-04-29T00:40:50.039Z,76.40
2023-04-29T00:43:17.451Z,68.80
2023-04-29T00:45:46.489Z,66.40
2023-04-29T00:48:14.705Z,75.30
2023-04-29T00:50:41.711Z,53.00
2023-04-29T00:53:14.440Z,61.30
2023-04-29T00:55:41.743Z,56.60
2023-04-29T00:58:09.912Z,52.60
2023-04-29T01:00:36.808Z,52.70
2023-04-29T01:03:04.704Z,51.60
2023-04-29T01:05:33.258Z,51.50
2023-04-29T01:08:14.982Z,66.80
2023-04-29T01:10:54.863Z,59.40
2023-04-29T01:13:51.487Z,54.00
2023-04-29T01:16:38.676Z,65.70
2023-04-29T01:19:17.397Z,41.00
2023-04-29T01:21:50.625Z,45.00
2023-04-29T01:24:17.604Z,45.60
2023-04-29T01:26:56.116Z,45.10
2023-04-29T01:29:54.524Z,42.50
2023-04-29T01:32:29.925Z,37.50
2023-04-29T01:35:06.525Z,36.40
2023-04-29T01:37:39.233Z,45.50
2023-04-29T01:40:16.650Z,29.70
2023-04-29T01:43:09.022Z,36.60
2023-04-29T01:45:35.920Z,29.70
2023-04-29T01:48:04.364Z,39.60
2023-04-29T01:53:07.836Z,30.70
2023-04-29T01:55:34.968Z,27.30
2023-04-29T01:58:12.672Z,26.10
2023-04-29T02:01:02.948Z,29.90
2023-04-29T02:03:34.024Z,64.90
2023-04-29T02:08:29.119Z,99.70
2023-04-29T02:10:56.984Z,85.00
2023-04-29T02:13:41.145Z,91.30
2023-04-29T02:16:09.509Z,78.30
2023-04-29T02:18:37.586Z,76.10
2023-04-29T02:21:05.032Z,65.40
2023-04-29T02:23:37.011Z,83.40
2023-04-29T02:26:07.017Z,79.50
2023-04-29T02:28:34.422Z,70.00
2023-04-29T02:31:01.824Z,56.10
2023-04-29T02:33:28.817Z,52.50
2023-04-29T02:35:55.917Z,43.50
2023-04-29T02:38:22.777Z,49.60
2023-04-29T02:40:49.846Z,53.00
2023-04-29T02:43:16.646Z,38.80
2023-04-29T02:45:45.025Z,39.80
2023-04-29T02:48:11.987Z,53.90
2023-04-29T02:50:39.329Z,45.00
2023-04-29T02:53:06.376Z,41.80
2023-04-29T02:55:33.736Z,39.60
2023-04-29T02:58:05.590Z,47.90
2023-04-29T03:00:32.553Z,37.70
2023-04-29T03:02:59.585Z,29.00
2023-04-29T03:05:26.767Z,26.30
2023-04-29T03:07:54.009Z,20.10
2023-04-29T03:10:21.335Z,22.50
2023-04-29T03:12:48.528Z,36.70
2023-04-29T03:15:15.835Z,26.70
2023-04-29T03:17:45.158Z,13.20
2023-04-29T03:20:13.349Z,45.10
2023-04-29T03:22:40.562Z,15.60
2023-04-29T03:25:09.822Z,20.70
2023-04-29T03:27:37.787Z,19.00
2023-04-29T03:30:06.383Z,21.40
2023-04-29T03:32:33.767Z,20.80
2023-04-29T03:35:01.426Z,16.70
2023-04-29T03:37:43.666Z,12.80
2023-04-29T03:40:18.964Z,19.40
2023-04-29T03:42:45.804Z,15.70
2023-04-29T03:45:13.774Z,22.70
2023-04-29T03:47:40.862Z,17.80
2023-04-29T03:50:08.708Z,18.60
2023-04-29T03:52:38.606Z,45.40
2023-04-29T03:55:11.174Z,38.20
2023-04-29T03:57:39.294Z,55.10
2023-04-29T04:00:08.484Z,41.70
2023-04-29T04:02:44.027Z,35.60
2023-04-29T04:05:11.408Z,38.30
2023-04-29T04:07:39.206Z,32.60
2023-04-29T04:10:24.943Z,36.90
2023-04-29T04:12:52.652Z,39.50
2023-04-29T04:15:21.947Z,33.90
2023-04-29T04:17:49.008Z,23.00
2023-04-29T04:20:16.093Z,29.40
2023-04-29T04:22:43.432Z,21.60
2023-04-29T04:25:17.259Z,13.60
2023-04-29T04:27:44.033Z,14.80
2023-04-29T04:30:13.966Z,11.30
2023-04-29T04:32:40.970Z,4.90
2023-04-29T04:35:08.775Z,5.70
2023-04-29T04:37:35.732Z,10.10
2023-04-29T04:40:03.276Z,7.00
2023-04-29T04:42:33.113Z,5.70
2023-04-29T04:45:00.444Z,7.70
2023-04-29T04:47:47.638Z,3.90
2023-04-29T04:50:21.780Z,5.40
2023-04-29T04:52:49.235Z,4.80
2023-04-29T04:55:32.884Z,6.70
2023-04-29T04:58:02.274Z,9.60
2023-04-29T05:00:30.440Z,5.30
2023-04-29T05:02:57.893Z,6.80
2023-04-29T05:05:25.063Z,8.20
2023-04-29T05:07:51.824Z,11.60
2023-04-29T05:10:27.106Z,14.20
2023-04-29T05:12:55.814Z,10.40
2023-04-29T05:15:22.706Z,15.70
2023-04-29T05:17:51.084Z,12.60
2023-04-29T05:20:18.056Z,10.10
2023-04-29T05:22:45.674Z,6.20
2023-04-29T05:25:13.099Z,6.80
2023-04-29T05:27:40.723Z,6.30
2023-04-29T05:30:11.642Z,4.60
2023-04-29T05:32:38.719Z,3.60
2023-04-29T05:35:07.749Z,7.20
2023-04-29T05:37:35.291Z,4.70
2023-04-29T05:40:15.109Z,6.10
2023-04-29T05:42:42.285Z,4.60
2023-04-29T05:45:09.854Z,5.40
2023-04-29T05:47:36.764Z,4.50
2023-04-29T05:50:03.908Z,5.90
2023-04-29T05:52:30.958Z,6.70
2023-04-29T05:54:58.892Z,6.70
2023-04-29T05:57:25.794Z,7.00
2023-04-29T05:59:57.193Z,3.60
2023-04-29T06:02:24.244Z,6.10
2023-04-29T06:04:51.652Z,4.00
2023-04-29T06:07:28.181Z,6.70
2023-04-29T06:09:59.846Z,4.30
2023-04-29T06:12:27.519Z,1.90
2023-04-29T06:14:54.681Z,7.40
2023-04-29T06:17:21.828Z,4.90
2023-04-29T06:19:48.776Z,5.00
2023-04-29T06:22:15.650Z,5.70
2023-04-29T06:24:49.424Z,16.60
2023-04-29T06:27:22.655Z,1.80
2023-04-29T06:29:49.474Z,3.10
2023-04-29T06:32:16.605Z,6.80
2023-04-29T06:34:45.291Z,5.20
2023-04-29T06:37:28.271Z,5.40
2023-04-29T06:40:07.064Z,2.20
2023-04-29T06:43:03.948Z,3.70
2023-04-29T06:48:22.136Z,5.40
2023-04-29T06:50:53.865Z,3.00
2023-04-29T06:53:21.249Z,4.00
2023-04-29T06:55:48.189Z,3.60
2023-04-29T06:58:15.827Z,7.00
2023-04-29T07:00:46.954Z,4.60
2023-04-29T07:03:14.745Z,5.60
2023-04-29T07:05:44.782Z,4.10
2023-04-29T07:08:12.682Z,4.30
2023-04-29T07:10:40.875Z,4.90
2023-04-29T07:13:07.692Z,3.70
2023-04-29T07:15:35.816Z,3.90
2023-04-29T07:18:04.856Z,4.70
2023-04-29T07:20:31.839Z,5.00
2023-04-29T07:22:58.881Z,3.30
2023-04-29T07:25:27.231Z,2.20
2023-04-29T07:30:20.816Z,2.40
2023-04-29T07:32:47.682Z,3.00
2023-04-29T07:35:14.766Z,7.00
2023-04-29T07:37:43.971Z,5.20
2023-04-29T07:40:11.156Z,3.80
2023-04-29T07:42:38.369Z,2.40
2023-04-29T07:47:34.353Z,2.80
2023-04-29T07:50:01.145Z,6.50
2023-04-29T07:52:29.015Z,4.00
2023-04-29T07:54:55.914Z,3.70
2023-04-29T07:57:22.680Z,4.80
2023-04-29T07:59:53.481Z,2.20
2023-04-29T08:02:21.031Z,3.70
2023-04-29T08:04:48.675Z,3.50
2023-04-29T08:07:16.952Z,3.50
2023-04-29T08:09:43.691Z,3.60
2023-04-29T08:12:10.933Z,8.60
2023-04-29T08:14:40.482Z,5.80
2023-04-29T08:17:08.142Z,4.10
2023-04-29T08:19:35.311Z,3.80
2023-04-29T08:22:03.642Z,5.70
2023-04-29T08:24:32.997Z,2.60
2023-04-29T08:26:59.864Z,2.30
2023-04-29T08:29:27.148Z,2.70
2023-04-29T08:31:54.030Z,4.30
2023-04-29T08:34:20.894Z,4.20
2023-04-29T08:36:47.684Z,3.40
2023-04-29T08:39:14.460Z,3.40
2023-04-29T08:41:43.613Z,3.00
2023-04-29T08:44:10.430Z,2.60
2023-04-29T08:46:38.250Z,2.90
2023-04-29T08:49:05.005Z,2.90
2023-04-29T08:51:34.108Z,2.30
2023-04-29T08:54:01.178Z,4.20
2023-04-29T08:56:28.361Z,3.50
2023-04-29T08:58:55.918Z,4.10
2023-04-29T09:01:22.811Z,3.70
2023-04-29T09:03:54.548Z,6.70
2023-04-29T09:06:21.605Z,4.50
2023-04-29T09:08:48.446Z,4.00
2023-04-29T09:11:15.278Z,2.40
2023-04-29T09:13:42.107Z,3.40
2023-04-29T09:16:12.257Z,2.00
2023-04-29T09:18:49.790Z,4.10
2023-04-29T09:21:16.578Z,2.80
2023-04-29T09:23:44.290Z,4.10
2023-04-29T09:26:11.078Z,2.80
2023-04-29T09:28:40.563Z,3.80
2023-04-29T09:31:08.091Z,3.00
2023-04-29T09:33:51.930Z,3.80
2023-04-29T09:36:48.814Z,2.60
2023-04-29T09:39:21.564Z,3.10
2023-04-29T09:41:54.396Z,3.60
2023-04-29T09:44:33.612Z,5.10
2023-04-29T09:47:03.551Z,3.30
2023-04-29T09:49:38.015Z,3.70
2023-04-29T09:52:16.129Z,2.10
2023-04-29T09:57:11.483Z,6.50
2023-04-29T10:02:17.114Z,3.60
2023-04-29T10:04:48.000Z,3.00
2023-04-29T10:07:16.273Z,3.00
2023-04-29T10:12:10.791Z,5.30
2023-04-29T10:14:45.055Z,3.30
2023-04-29T10:17:17.007Z,3.10
2023-04-29T10:19:56.736Z,2.70
2023-04-29T10:22:30.395Z,2.20
2023-04-29T10:24:58.640Z,2.40
2023-04-29T10:29:52.668Z,1.80
2023-04-29T10:32:19.441Z,5.10
2023-04-29T10:34:46.257Z,3.20
2023-04-29T10:37:12.978Z,2.60
2023-04-29T10:39:52.771Z,2.70
2023-04-29T10:42:34.710Z,3.20
2023-04-29T10:45:34.922Z,2.20
2023-04-29T10:48:02.199Z,2.80
2023-04-29T10:50:29.954Z,3.00
2023-04-29T10:52:57.260Z,3.50
2023-04-29T10:55:24.567Z,2.60
2023-04-29T10:57:57.750Z,2.50
2023-04-29T11:00:28.895Z,4.00
2023-04-29T11:02:56.773Z,2.80
2023-04-29T11:05:30.363Z,3.00
2023-04-29T11:08:12.962Z,4.90
2023-04-29T11:10:43.103Z,4.00
2023-04-29T11:13:29.493Z,2.30
2023-04-29T11:16:07.406Z,4.00
2023-04-29T11:18:36.696Z,4.20
2023-04-29T11:23:34.183Z,3.60
2023-04-29T11:26:01.002Z,3.70
2023-04-29T11:28:28.091Z,4.70
2023-04-29T11:30:54.912Z,2.90
2023-04-29T11:33:21.885Z,4.00
2023-04-29T11:35:48.814Z,5.00
2023-04-29T11:38:15.737Z,6.70
2023-04-29T11:40:48.689Z,4.80
2023-04-29T11:43:19.458Z,2.10
2023-04-29T11:45:46.517Z,5.50
2023-04-29T11:48:23.644Z,4.50
2023-04-29T11:50:57.277Z,5.70
2023-04-29T11:53:25.353Z,2.60
2023-04-29T11:55:55.396Z,5.40
2023-04-29T11:58:22.816Z,2.30
2023-04-29T12:00:50.256Z,2.40
2023-04-29T12:03:19.010Z,4.40
2023-04-29T12:05:53.458Z,1.90
2023-04-29T12:08:21.189Z,4.70
2023-04-29T12:10:48.800Z,1.70
2023-04-29T12:13:18.968Z,3.30
2023-04-29T12:15:47.086Z,2.60
2023-04-29T12:18:14.092Z,6.30
2023-04-29T12:20:40.918Z,2.60
2023-04-29T12:23:15.043Z,1.80
2023-04-29T12:25:42.108Z,1.70
2023-04-29T12:28:12.650Z,3.20
2023-04-29T12:30:39.408Z,3.40
2023-04-29T12:33:09.367Z,6.50
2023-04-29T12:35:36.604Z,2.90
2023-04-29T12:38:03.389Z,1.50
2023-04-29T12:40:32.391Z,4.40
2023-04-29T12:43:06.618Z,5.70
2023-04-29T12:45:34.284Z,2.30
2023-04-29T12:48:01.345Z,3.30
2023-04-29T12:50:32.643Z,3.50
2023-04-29T12:52:59.782Z,3.80
2023-04-29T12:55:26.711Z,4.90
2023-04-29T12:57:53.434Z,3.80
2023-04-29T13:00:21.091Z,5.10
2023-04-29T13:02:48.331Z,4.40
2023-04-29T13:05:16.005Z,4.50
2023-04-29T13:07:43.218Z,3.00
2023-04-29T13:10:12.009Z,3.10
2023-04-29T13:12:39.058Z,2.40
2023-04-29T13:15:09.087Z,3.10
2023-04-29T13:17:36.530Z,4.30
2023-04-29T13:20:04.984Z,2.90
2023-04-29T13:22:32.290Z,2.40
2023-04-29T13:24:59.144Z,4.30
2023-04-29T13:27:26.207Z,8.50
2023-04-29T13:29:53.034Z,4.10
2023-04-29T13:32:24.363Z,3.90
2023-04-29T13:34:51.713Z,3.40
2023-04-29T13:37:21.804Z,5.00
2023-04-29T13:39:54.150Z,2.00
2023-04-29T13:42:26.948Z,8.20
2023-04-29T13:44:56.713Z,3.10
2023-04-29T13:47:26.154Z,4.00
2023-04-29T13:50:16.984Z,1.70
2023-04-29T14:00:31.718Z,7.30
2023-04-29T14:05:28.497Z,2.40
2023-04-29T14:07:55.421Z,3.00
2023-04-29T14:10:22.263Z,5.20
2023-04-29T14:12:49.133Z,2.70
2023-04-29T14:15:16.272Z,3.70
2023-04-29T14:17:43.131Z,2.70
2023-04-29T14:20:10.218Z,2.90
2023-04-29T14:22:37.910Z,3.40
2023-04-29T14:25:06.307Z,1.90
2023-04-29T14:27:35.117Z,3.40
2023-04-29T14:30:01.915Z,2.10
2023-04-29T14:32:29.605Z,3.30
2023-04-29T14:34:56.361Z,5.30
2023-04-29T14:37:23.059Z,4.50
2023-04-29T14:39:49.794Z,4.10
2023-04-29T14:42:18.170Z,14.60
2023-04-29T14:44:45.021Z,4.70
2023-04-29T14:47:11.853Z,7.50
2023-04-29T14:49:38.981Z,6.00
2023-04-29T14:52:06.566Z,2.40
2023-04-29T14:54:33.569Z,3.70
2023-04-29T14:57:01.652Z,3.20
2023-04-29T15:01:57.270Z,3.10
2023-04-29T15:04:24.266Z,3.80
2023-04-29T15:06:51.057Z,5.40
2023-04-29T15:09:18.182Z,2.60
2023-04-29T15:11:45.288Z,2.60
2023-04-29T15:14:12.125Z,2.80
2023-04-29T15:16:39.347Z,4.30
2023-04-29T15:19:06.440Z,2.40
2023-04-29T15:21:33.989Z,11.40
2023-04-29T15:24:02.032Z,5.30
2023-04-29T15:26:29.344Z,5.50
2023-04-29T15:28:56.260Z,2.30
2023-04-29T15:31:24.913Z,2.20
2023-04-29T15:33:53.287Z,3.80
2023-04-29T15:36:35.417Z,8.20
2023-04-29T15:39:02.373Z,6.90
2023-04-29T15:41:29.242Z,7.30
2023-04-29T15:43:56.194Z,5.60
2023-04-29T15:46:23.194Z,3.80
2023-04-29T15:48:50.853Z,4.90
2023-04-29T15:51:18.210Z,7.50
2023-04-29T15:53:44.962Z,4.00
2023-04-29T15:56:12.820Z,5.80
2023-04-29T15:58:39.764Z,11.00
2023-04-29T16:01:06.744Z,8.60
2023-04-29T16:03:34.103Z,11.10
2023-04-29T16:06:01.146Z,7.90
2023-04-29T16:08:28.241Z,6.10
2023-04-29T16:10:55.481Z,3.90
2023-04-29T16:13:22.351Z,23.20
2023-04-29T16:15:49.572Z,5.40
2023-04-29T16:18:17.329Z,9.20
2023-04-29T16:20:45.034Z,3.90
2023-04-29T16:23:11.881Z,4.90
2023-04-29T16:25:40.875Z,3.20
2023-04-29T16:28:07.707Z,4.10
2023-04-29T16:30:35.471Z,5.50
2023-04-29T16:33:02.483Z,2.90
2023-04-29T16:35:30.320Z,5.10
2023-04-29T16:37:57.167Z,6.20
2023-04-29T16:40:24.106Z,4.00
2023-04-29T16:42:52.720Z,9.50
2023-04-29T16:47:49.162Z,10.80
2023-04-29T16:50:16.965Z,7.70
2023-04-29T16:52:44.174Z,10.70
2023-04-29T16:55:14.172Z,10.20
2023-04-29T16:57:41.586Z,7.00
2023-04-29T17:00:09.811Z,11.80
2023-04-29T17:02:39.460Z,9.20
2023-04-29T17:05:08.331Z,17.10
2023-04-29T17:07:35.304Z,14.30
2023-04-29T17:10:03.166Z,16.20
2023-04-29T17:12:30.216Z,13.00
2023-04-29T17:14:57.263Z,31.20
2023-04-29T17:17:24.104Z,24.10
2023-04-29T17:19:51.098Z,20.70
2023-04-29T17:22:19.321Z,20.10
2023-04-29T17:24:46.463Z,21.00
2023-04-29T17:27:13.332Z,20.00
2023-04-29T17:29:40.369Z,19.30
2023-04-29T17:32:11.977Z,22.40
2023-04-29T17:34:38.964Z,23.80
2023-04-29T17:37:06.206Z,20.70
2023-04-29T17:39:33.869Z,26.50
2023-04-29T17:42:00.873Z,25.60
2023-04-29T17:44:27.972Z,19.00
2023-04-29T17:46:54.834Z,18.00
2023-04-29T17:49:21.655Z,15.60
2023-04-29T17:51:48.430Z,14.70
2023-04-29T17:54:15.213Z,14.70
2023-04-29T17:56:42.017Z,20.30
2023-04-29T17:59:09.029Z,25.60
2023-04-29T18:01:36.636Z,25.10
2023-04-29T18:04:04.318Z,23.20
2023-04-29T18:06:31.514Z,19.10
2023-04-29T18:08:58.433Z,21.50
2023-04-29T18:11:25.476Z,18.50
2023-04-29T18:13:53.344Z,20.50
2023-04-29T18:16:20.283Z,22.50
2023-04-29T18:18:47.236Z,17.30
2023-04-29T18:21:20.055Z,16.90
2023-04-29T18:23:47.270Z,17.20
2023-04-29T18:26:14.665Z,20.40
2023-04-29T18:28:41.484Z,11.30
2023-04-29T18:31:08.277Z,14.20
2023-04-29T18:33:36.413Z,28.90
2023-04-29T18:36:03.706Z,19.00
2023-04-29T18:38:30.670Z,19.40
2023-04-29T18:40:57.494Z,25.90
2023-04-29T18:43:27.844Z,25.70
2023-04-29T18:45:56.373Z,37.70
2023-04-29T18:48:23.778Z,45.20
2023-04-29T18:50:52.164Z,34.40
2023-04-29T18:53:19.095Z,35.60
2023-04-29T18:55:46.654Z,33.20
2023-04-29T18:58:14.172Z,30.00
2023-04-29T19:00:41.924Z,36.80
2023-04-29T19:03:08.967Z,38.20
2023-04-29T19:05:35.844Z,38.10
2023-04-29T19:08:02.692Z,49.80
2023-04-29T19:10:30.009Z,53.60
2023-04-29T19:12:56.786Z,53.10
2023-04-29T19:15:27.297Z,72.20
2023-04-29T19:17:54.639Z,67.20
2023-04-29T19:20:21.565Z,68.10
2023-04-29T19:22:48.676Z,75.50
2023-04-29T19:25:15.560Z,63.40
2023-04-29T19:27:45.142Z,66.90
2023-04-29T19:30:12.629Z,110.20
2023-04-29T19:32:40.580Z,118.40
2023-04-29T19:35:08.120Z,149.30
2023-04-29T19:37:35.256Z,182.00
2023-04-29T19:40:03.189Z,185.20
2023-04-29T19:42:31.209Z,224.10
2023-04-29T19:44:58.036Z,264.90
2023-04-29T19:47:25.147Z,302.00
2023-04-29T19:49:52.297Z,299.70
2023-04-29T19:52:19.396Z,214.90
2023-04-29T19:54:46.228Z,204.00
2023-04-29T19:57:13.045Z,156.50
2023-04-29T19:59:40.074Z,212.50
2023-04-29T20:02:06.950Z,240.40
2023-04-29T20:04:34.362Z,248.80
2023-04-29T20:07:01.355Z,268.70
2023-04-29T20:09:28.284Z,299.00
2023-04-29T20:11:55.246Z,347.00
2023-04-29T20:14:22.953Z,399.00
2023-04-29T20:16:49.787Z,373.60
2023-04-29T20:19:17.134Z,333.30
2023-04-29T20:21:44.352Z,303.00
2023-04-29T20:24:11.343Z,325.10
2023-04-29T20:26:38.136Z,379.20
2023-04-29T20:29:05.288Z,445.20
2023-04-29T20:31:32.561Z,434.40
2023-04-29T20:33:59.727Z,403.50
2023-04-29T20:36:27.936Z,344.10
2023-04-29T20:38:54.783Z,331.20
2023-04-29T20:41:21.821Z,300.70
2023-04-29T20:43:48.689Z,307.90
2023-04-29T20:46:16.305Z,271.70
2023-04-29T20:48:43.402Z,285.00
2023-04-29T20:51:11.783Z,192.20
2023-04-29T20:53:38.944Z,178.80
2023-04-29T20:56:07.982Z,132.20
2023-04-29T20:58:34.970Z,146.50
2023-04-29T21:01:01.812Z,119.20
2023-04-29T21:03:29.177Z,134.10
2023-04-29T21:05:56.824Z,113.90
2023-04-29T21:08:24.098Z,96.10
2023-04-29T21:10:50.963Z,86.00
2023-04-29T21:13:17.758Z,123.50
2023-04-29T21:15:45.874Z,96.30
2023-04-29T21:18:13.360Z,121.80
2023-04-29T21:20:40.229Z,126.60
2023-04-29T21:23:07.047Z,113.60
2023-04-29T21:25:34.118Z,85.80
2023-04-29T21:28:01.187Z,85.50
2023-04-29T21:30:28.373Z,68.40
2023-04-29T21:32:55.775Z,69.40
2023-04-29T21:35:23.446Z,85.30
2023-04-29T21:37:51.568Z,96.40
2023-04-29T21:40:20.618Z,111.80
2023-04-29T21:42:50.509Z,122.40
2023-04-29T21:45:17.360Z,102.30
2023-04-29T21:47:44.183Z,103.60
2023-04-29T21:50:11.381Z,154.00
2023-04-29T21:52:38.606Z,145.40
2023-04-29T21:55:06.155Z,158.50
2023-04-29T21:57:43.388Z,161.70
2023-04-29T22:00:28.050Z,185.20
2023-04-29T22:02:55.109Z,145.40
2023-04-29T22:05:21.990Z,203.60
2023-04-29T22:07:48.938Z,172.50
2023-04-29T22:10:15.791Z,252.70
2023-04-29T22:12:42.610Z,182.30
2023-04-29T22:15:20.695Z,198.90
2023-04-29T22:17:54.724Z,172.70
2023-04-29T22:20:21.631Z,136.70
2023-04-29T22:22:48.565Z,133.70
2023-04-29T22:25:15.479Z,134.60
2023-04-29T22:27:42.350Z,73.40
2023-04-29T22:30:09.763Z,78.90
2023-04-29T22:32:36.719Z,62.30
2023-04-29T22:35:04.063Z,27.20
2023-04-29T22:37:31.155Z,25.90
2023-04-29T22:39:58.406Z,29.60
2023-04-29T22:42:25.268Z,37.20
2023-04-29T22:44:52.247Z,53.90
2023-04-29T22:47:19.097Z,59.80
2023-04-29T22:49:46.017Z,43.40
2023-04-29T22:52:12.983Z,28.70
2023-04-29T22:54:40.437Z,27.10
2023-04-29T22:57:07.412Z,32.90
2023-04-29T22:59:36.280Z,36.60
2023-04-29T23:02:03.107Z,50.00
2023-04-29T23:04:31.788Z,69.30
2023-04-29T23:06:58.852Z,75.10
2023-04-29T23:09:26.105Z,88.20
2023-04-29T23:11:52.954Z,66.50
2023-04-29T23:14:20.468Z,79.60
2023-04-29T23:16:47.239Z,66.80
2023-04-29T23:19:14.078Z,55.60
2023-04-29T23:21:41.369Z,57.60
2023-04-29T23:24:08.282Z,67.20
2023-04-29T23:26:35.259Z,104.00
2023-04-29T23:29:02.168Z,90.90
2023-04-29T23:31:29.107Z,78.30
2023-04-29T23:33:56.261Z,61.90
2023-04-29T23:36:23.088Z,64.00
2023-04-29T23:38:50.040Z,54.50
2023-04-29T23:41:16.881Z,40.00
2023-04-29T23:43:43.731Z,44.60
2023-04-29T23:46:10.645Z,50.50
2023-04-29T23:48:37.719Z,60.50
2023-04-29T23:51:04.682Z,43.30
2023-04-29T23:53:31.712Z,66.10
2023-04-29T23:55:58.650Z,89.00
2023-04-29T23:58:25.595Z,96.20
